createdAt,value
2023-06-21T00:00:26.491Z,2.88
2023-06-21T00:05:49.590Z,2.55
2023-06-21T00:11:11.476Z,3.78
2023-06-21T00:16:33.321Z,3.25
2023-06-21T00:21:55.410Z,2.28
2023-06-21T00:27:19.456Z,3.67
2023-06-21T00:32:41.389Z,3.97
2023-06-21T00:38:03.236Z,2.25
2023-06-21T00:43:25.112Z,2.72
2023-06-21T00:48:46.945Z,2.10
2023-06-21T00:54:17.311Z,3.33
2023-06-21T00:59:39.464Z,3.65
2023-06-21T01:05:02.916Z,2.40
2023-06-21T01:10:27.893Z,2.58
2023-06-21T01:21:20.396Z,3.83
2023-06-21T01:27:00.058Z,3.17
2023-06-21T01:32:22.880Z,2.65
2023-06-21T01:37:45.045Z,3.10
2023-06-21T01:43:07.723Z,1.88
2023-06-21T01:48:31.427Z,2.67
2023-06-21T01:53:53.989Z,2.03
2023-06-21T01:59:16.077Z,4.05
2023-06-21T02:04:40.597Z,2.38
2023-06-21T02:10:03.218Z,2.83
2023-06-21T02:15:25.044Z,2.10
2023-06-21T02:20:48.511Z,2.55
2023-06-21T02:26:12.173Z,3.30
2023-06-21T02:31:35.850Z,3.80
2023-06-21T02:36:57.653Z,2.28
2023-06-21T02:42:19.693Z,2.30
2023-06-21T02:47:41.586Z,2.15
2023-06-21T02:53:03.426Z,2.58
2023-06-21T02:58:25.359Z,2.75
2023-06-21T03:03:47.281Z,2.50
2023-06-21T03:09:10.032Z,2.35
2023-06-21T03:14:31.858Z,2.63
2023-06-21T03:19:53.669Z,2.05
2023-06-21T03:25:16.549Z,2.40
2023-06-21T03:30:38.447Z,3.58
2023-06-21T03:36:00.335Z,2.38
2023-06-21T03:41:22.345Z,3.08
2023-06-21T03:46:44.236Z,2.30
2023-06-21T03:52:07.375Z,2.30
2023-06-21T03:57:29.293Z,2.17
2023-06-21T04:02:51.618Z,2.30
2023-06-21T04:08:13.626Z,2.17
2023-06-21T04:13:35.605Z,3.17
2023-06-21T04:18:57.485Z,2.72
2023-06-21T04:24:19.405Z,3.03
2023-06-21T04:29:42.131Z,2.17
2023-06-21T04:35:05.006Z,5.38
2023-06-21T04:40:28.086Z,2.05
2023-06-21T04:45:50.159Z,2.03
2023-06-21T04:51:16.513Z,2.55
2023-06-21T04:56:38.595Z,2.10
2023-06-21T05:02:01.116Z,2.10
2023-06-21T05:07:23.031Z,4.38
2023-06-21T05:12:45.071Z,2.83
2023-06-21T05:18:07.022Z,2.85
2023-06-21T05:23:29.087Z,1.95
2023-06-21T05:28:50.984Z,5.78
2023-06-21T05:34:12.966Z,2.10
2023-06-21T05:39:34.765Z,3.25
2023-06-21T05:44:56.705Z,3.42
2023-06-21T05:50:18.535Z,3.83
2023-06-21T05:55:40.946Z,3.92
2023-06-21T06:01:16.260Z,3.53
2023-06-21T06:06:45.960Z,4.95
2023-06-21T06:12:09.974Z,4.82
2023-06-21T06:17:32.135Z,6.80
2023-06-21T06:22:54.026Z,8.80
2023-06-21T06:28:15.887Z,13.02
2023-06-21T06:33:37.750Z,9.98
2023-06-21T06:38:59.623Z,15.73
2023-06-21T06:44:21.500Z,10.35
2023-06-21T06:49:43.476Z,10.70
2023-06-21T06:55:06.191Z,9.63
2023-06-21T07:00:28.690Z,10.02
2023-06-21T07:05:50.819Z,7.28
2023-06-21T07:11:12.829Z,9.80
2023-06-21T07:16:43.219Z,8.43
2023-06-21T07:22:05.491Z,5.65
2023-06-21T07:27:28.183Z,5.95
2023-06-21T07:32:50.970Z,9.95
2023-06-21T07:38:12.870Z,8.35
2023-06-21T07:43:34.790Z,7.38
2023-06-21T07:48:56.742Z,6.20
2023-06-21T07:54:18.636Z,7.15
2023-06-21T07:59:40.551Z,5.68
2023-06-21T08:05:02.421Z,4.90
2023-06-21T08:10:24.748Z,4.40
2023-06-21T08:15:47.089Z,5.20
2023-06-21T08:21:09.676Z,18.30
2023-06-21T08:26:31.653Z,8.57
2023-06-21T08:31:53.606Z,20.92
2023-06-21T08:37:15.513Z,18.27
2023-06-21T08:42:37.351Z,26.50
2023-06-21T08:48:02.723Z,19.55
2023-06-21T08:53:37.305Z,17.13
2023-06-21T08:59:06.617Z,15.25
2023-06-21T09:04:32.840Z,12.77
2023-06-21T09:09:57.984Z,15.55
2023-06-21T09:15:20.279Z,14.30
2023-06-21T09:20:47.159Z,14.10
2023-06-21T09:26:10.850Z,11.73
2023-06-21T09:31:32.901Z,7.95
2023-06-21T09:36:55.550Z,8.13
2023-06-21T09:42:17.570Z,6.18
2023-06-21T09:47:43.350Z,7.70
2023-06-21T09:53:05.312Z,7.18
2023-06-21T09:58:27.283Z,5.05
2023-06-21T10:03:49.311Z,4.68
2023-06-21T10:09:11.378Z,2.92
2023-06-21T10:14:34.279Z,3.05
2023-06-21T10:19:58.657Z,3.78
2023-06-21T10:25:24.427Z,4.87
2023-06-21T10:30:48.108Z,4.18
2023-06-21T10:36:14.243Z,3.78
2023-06-21T10:41:37.707Z,6.65
2023-06-21T10:47:01.496Z,4.93
2023-06-21T10:52:25.460Z,3.17
2023-06-21T10:57:49.513Z,8.85
2023-06-21T11:03:17.320Z,6.18
2023-06-21T11:08:39.657Z,5.78
2023-06-21T11:14:03.573Z,5.20
2023-06-21T11:19:28.102Z,5.18
2023-06-21T11:25:01.837Z,7.43
2023-06-21T11:30:24.148Z,6.15
2023-06-21T11:35:52.837Z,4.20
2023-06-21T11:41:41.896Z,4.82
2023-06-21T11:47:15.999Z,4.45
2023-06-21T11:52:37.877Z,5.53
2023-06-21T11:57:59.762Z,3.97
2023-06-21T12:03:23.886Z,2.80
2023-06-21T12:08:45.880Z,8.17
2023-06-21T12:14:10.308Z,3.60
2023-06-21T12:19:34.025Z,5.00
2023-06-21T12:24:56.804Z,4.18
2023-06-21T12:30:18.762Z,6.05
2023-06-21T12:35:40.619Z,6.75
2023-06-21T12:41:02.768Z,6.18
2023-06-21T12:46:25.314Z,7.22
2023-06-21T12:51:48.371Z,4.95
2023-06-21T12:57:12.230Z,3.25
2023-06-21T13:02:36.454Z,4.00
2023-06-21T13:07:59.462Z,4.95
2023-06-21T13:13:21.234Z,5.75
2023-06-21T13:18:46.123Z,5.38
2023-06-21T13:24:08.086Z,2.72
2023-06-21T13:29:30.875Z,3.97
2023-06-21T13:34:52.768Z,4.22
2023-06-21T13:40:15.603Z,6.00
2023-06-21T13:45:37.957Z,5.28
2023-06-21T13:51:00.178Z,4.45
2023-06-21T13:56:22.105Z,3.83
2023-06-21T14:01:44.090Z,2.80
2023-06-21T14:07:06.912Z,7.03
2023-06-21T14:12:28.786Z,8.85
2023-06-21T14:17:50.772Z,5.25
2023-06-21T14:23:15.879Z,5.80
2023-06-21T14:28:41.055Z,4.40
2023-06-21T14:34:03.647Z,2.83
2023-06-21T14:39:25.544Z,4.88
2023-06-21T14:44:47.715Z,5.25
2023-06-21T14:50:10.055Z,7.32
2023-06-21T14:55:32.028Z,6.72
2023-06-21T15:00:53.995Z,2.55
2023-06-21T15:06:15.947Z,6.93
2023-06-21T15:11:40.823Z,3.40
2023-06-21T15:17:02.966Z,3.42
2023-06-21T15:22:24.925Z,8.15
2023-06-21T15:27:46.742Z,6.03
2023-06-21T15:33:08.909Z,5.63
2023-06-21T15:38:30.787Z,5.10
2023-06-21T15:43:52.762Z,5.20
2023-06-21T15:49:15.469Z,4.20
2023-06-21T15:54:37.264Z,5.43
2023-06-21T15:59:59.926Z,8.35
2023-06-21T16:05:21.765Z,3.03
2023-06-21T16:10:45.385Z,9.57
2023-06-21T16:21:31.352Z,3.65
2023-06-21T16:26:55.833Z,4.95
2023-06-21T16:32:18.557Z,3.38
2023-06-21T16:37:40.479Z,3.67
2023-06-21T16:43:02.337Z,10.05
2023-06-21T16:48:24.196Z,10.93
2023-06-21T16:59:22.655Z,18.80
2023-06-21T17:04:44.630Z,30.27
2023-06-21T17:10:07.223Z,14.35
2023-06-21T17:15:29.276Z,13.55
2023-06-21T17:20:51.348Z,17.55
2023-06-21T17:26:13.316Z,9.38
2023-06-21T17:31:35.363Z,4.82
2023-06-21T17:36:57.418Z,8.85
2023-06-21T17:42:19.236Z,5.43
2023-06-21T17:47:41.285Z,6.10
2023-06-21T17:53:03.361Z,6.40
2023-06-21T17:58:26.236Z,5.30
2023-06-21T18:03:48.554Z,8.27
2023-06-21T18:09:10.480Z,5.45
2023-06-21T18:14:32.302Z,5.20
2023-06-21T18:19:54.168Z,5.63
2023-06-21T18:25:16.858Z,4.07
2023-06-21T18:30:38.811Z,3.30
2023-06-21T18:36:01.145Z,7.70
2023-06-21T18:41:23.110Z,3.88
2023-06-21T18:46:44.968Z,4.90
2023-06-21T18:52:07.421Z,2.88
2023-06-21T18:57:29.506Z,3.90
2023-06-21T19:02:51.586Z,4.20
2023-06-21T19:08:13.722Z,6.88
2023-06-21T19:13:35.615Z,3.83
2023-06-21T19:18:57.522Z,5.18
2023-06-21T19:24:19.328Z,3.38
2023-06-21T19:29:41.210Z,5.88
2023-06-21T19:35:03.897Z,5.70
2023-06-21T19:40:27.076Z,5.65
2023-06-21T19:45:49.236Z,9.50
2023-06-21T19:51:11.063Z,10.05
2023-06-21T19:56:33.703Z,11.73
2023-06-21T20:01:55.695Z,8.88
2023-06-21T20:07:18.647Z,10.27
2023-06-21T20:12:40.582Z,8.45
2023-06-21T20:18:02.707Z,12.52
2023-06-21T20:23:24.650Z,13.98
2023-06-21T20:28:46.562Z,15.90
2023-06-21T20:34:08.415Z,11.70
2023-06-21T20:39:30.263Z,8.98
2023-06-21T20:44:52.128Z,13.30
2023-06-21T20:50:14.103Z,8.68
2023-06-21T20:55:37.593Z,6.47
2023-06-21T21:00:59.531Z,11.63
2023-06-21T21:06:21.432Z,7.38
2023-06-21T21:11:43.282Z,8.63
2023-06-21T21:17:05.500Z,5.72
2023-06-21T21:22:27.438Z,6.90
2023-06-21T21:27:49.439Z,4.97
2023-06-21T21:33:12.078Z,6.10
2023-06-21T21:38:34.044Z,5.32
2023-06-21T21:43:57.062Z,3.55
2023-06-21T21:49:19.345Z,3.10
2023-06-21T21:54:41.170Z,5.55
2023-06-21T22:00:05.559Z,3.83
2023-06-21T22:05:27.377Z,3.83
2023-06-21T22:10:49.973Z,3.42
2023-06-21T22:16:13.795Z,2.15
2023-06-21T22:21:35.920Z,2.65
2023-06-21T22:26:57.859Z,2.35
2023-06-21T22:32:19.753Z,4.22
2023-06-21T22:37:41.600Z,2.08
2023-06-21T22:43:03.974Z,2.67
2023-06-21T22:48:25.908Z,5.18
2023-06-21T22:53:47.742Z,3.80
2023-06-21T22:59:09.672Z,4.30
2023-06-21T23:04:31.593Z,4.53
2023-06-21T23:09:58.285Z,3.13
2023-06-21T23:15:20.647Z,1.70
2023-06-21T23:20:42.456Z,2.13
2023-06-21T23:26:05.565Z,4.25
2023-06-21T23:31:27.775Z,4.63
2023-06-21T23:36:52.023Z,3.28
2023-06-21T23:42:13.865Z,4.03
2023-06-21T23:47:36.861Z,3.25
2023-06-21T23:52:58.713Z,2.47
2023-06-21T23:58:20.828Z,2.83
